Madsen, Utah
Current Conditions -  °F | °C
As of 1:15 PM on Sunday 23 Nov 2014 (Local Time) from KBMC Reporting Station
Scattered Clouds Scattered Clouds  
Wind Chill: 32°   Ceiling: Unl
Heat Index: 40°   Visibility: 10mi
Dew Point: 22°   Wind: 15mph
Humidity: 49%   Direction: 320°NW
Pressure: 30.23"   Gusts: 18mph
Location:  41.6146°N, 112.071°W
Report Text: KBMC 232015Z AUTO 32013G16KT 10SM SCT050 05/M05 A3023 RMK AO1 T00451054
Loading
Personal Weather Stations






























Interactive Weather Map New forecast layout! Learn more

10-Day Weather Forecast

Advertisements
Track Severe Weather on mobile